sensor_id;sensor_type;location;lat;lon;timestamp;P1;durP1;ratioP1;P2;durP2;ratioP2
11663;SDS011;72375;59.302;18.204;2023-10-31T00:01:04;4.63;;;2.17;;
11663;SDS011;72375;59.302;18.204;2023-10-31T00:03:51;11.23;;;2.70;;
11663;SDS011;72375;59.302;18.204;2023-10-31T00:06:36;9.33;;;2.77;;
11663;SDS011;72375;59.302;18.204;2023-10-31T00:09:22;8.20;;;2.40;;
11663;SDS011;72375;59.302;18.204;2023-10-31T00:12:08;9.37;;;2.30;;
11663;SDS011;72375;59.302;18.204;2023-10-31T00:14:53;6.33;;;2.20;;
11663;SDS011;72375;59.302;18.204;2023-10-31T00:17:39;6.70;;;2.10;;
11663;SDS011;72375;59.302;18.204;2023-10-31T00:20:26;8.70;;;2.43;;
11663;SDS011;72375;59.302;18.204;2023-10-31T00:23:11;4.87;;;2.33;;
11663;SDS011;72375;59.302;18.204;2023-10-31T00:25:57;3.80;;;2.00;;
11663;SDS011;72375;59.302;18.204;2023-10-31T00:28:42;6.77;;;2.87;;
11663;SDS011;72375;59.302;18.204;2023-10-31T00:31:28;6.23;;;2.50;;
11663;SDS011;72375;59.302;18.204;2023-10-31T00:34:14;8.13;;;2.60;;
11663;SDS011;72375;59.302;18.204;2023-10-31T00:37:01;7.50;;;2.53;;
11663;SDS011;72375;59.302;18.204;2023-10-31T00:39:47;7.47;;;2.00;;
11663;SDS011;72375;59.302;18.204;2023-10-31T00:42:32;7.87;;;2.10;;
11663;SDS011;72375;59.302;18.204;2023-10-31T00:45:18;6.93;;;1.93;;
11663;SDS011;72375;59.302;18.204;2023-10-31T00:48:04;9.10;;;2.47;;
11663;SDS011;72375;59.302;18.204;2023-10-31T00:50:50;5.90;;;2.30;;
11663;SDS011;72375;59.302;18.204;2023-10-31T00:53:37;5.77;;;2.40;;
11663;SDS011;72375;59.302;18.204;2023-10-31T00:56:22;7.10;;;2.13;;
11663;SDS011;72375;59.302;18.204;2023-10-31T00:59:08;7.00;;;2.07;;
11663;SDS011;72375;59.302;18.204;2023-10-31T01:01:54;5.47;;;2.13;;
11663;SDS011;72375;59.302;18.204;2023-10-31T01:04:39;9.53;;;2.50;;
11663;SDS011;72375;59.302;18.204;2023-10-31T01:07:25;5.30;;;2.00;;
11663;SDS011;72375;59.302;18.204;2023-10-31T01:10:12;6.87;;;2.30;;
11663;SDS011;72375;59.302;18.204;2023-10-31T01:12:58;8.23;;;2.43;;
11663;SDS011;72375;59.302;18.204;2023-10-31T01:15:43;7.77;;;2.03;;
11663;SDS011;72375;59.302;18.204;2023-10-31T01:18:29;6.20;;;2.07;;
11663;SDS011;72375;59.302;18.204;2023-10-31T01:21:14;6.70;;;2.83;;
11663;SDS011;72375;59.302;18.204;2023-10-31T01:24:00;6.43;;;2.07;;
11663;SDS011;72375;59.302;18.204;2023-10-31T01:26:47;6.63;;;2.10;;
11663;SDS011;72375;59.302;18.204;2023-10-31T01:29:33;5.53;;;1.90;;
11663;SDS011;72375;59.302;18.204;2023-10-31T01:32:18;2.97;;;1.70;;
11663;SDS011;72375;59.302;18.204;2023-10-31T01:35:04;3.87;;;1.73;;
11663;SDS011;72375;59.302;18.204;2023-10-31T01:37:50;7.47;;;2.40;;
11663;SDS011;72375;59.302;18.204;2023-10-31T01:40:36;5.70;;;2.10;;
11663;SDS011;72375;59.302;18.204;2023-10-31T01:43:33;6.80;;;2.20;;
11663;SDS011;72375;59.302;18.204;2023-10-31T01:46:19;5.60;;;1.90;;
11663;SDS011;72375;59.302;18.204;2023-10-31T01:49:05;4.53;;;1.97;;
11663;SDS011;72375;59.302;18.204;2023-10-31T01:51:50;7.63;;;2.10;;
11663;SDS011;72375;59.302;18.204;2023-10-31T01:54:36;6.90;;;1.80;;
11663;SDS011;72375;59.302;18.204;2023-10-31T01:57:22;4.40;;;1.50;;
11663;SDS011;72375;59.302;18.204;2023-10-31T02:00:09;6.33;;;1.57;;
11663;SDS011;72375;59.302;18.204;2023-10-31T02:02:56;9.27;;;2.40;;
11663;SDS011;72375;59.302;18.204;2023-10-31T02:05:42;6.33;;;1.97;;
11663;SDS011;72375;59.302;18.204;2023-10-31T02:08:27;4.67;;;1.77;;
11663;SDS011;72375;59.302;18.204;2023-10-31T02:11:13;6.53;;;2.33;;
11663;SDS011;72375;59.302;18.204;2023-10-31T02:13:59;8.47;;;2.20;;
11663;SDS011;72375;59.302;18.204;2023-10-31T02:16:46;6.20;;;1.77;;
11663;SDS011;72375;59.302;18.204;2023-10-31T02:19:32;4.97;;;1.93;;
11663;SDS011;72375;59.302;18.204;2023-10-31T02:22:19;4.47;;;2.37;;
11663;SDS011;72375;59.302;18.204;2023-10-31T02:25:15;8.70;;;2.23;;
11663;SDS011;72375;59.302;18.204;2023-10-31T02:28:01;6.33;;;2.40;;
11663;SDS011;72375;59.302;18.204;2023-10-31T02:30:47;7.83;;;2.17;;
11663;SDS011;72375;59.302;18.204;2023-10-31T02:33:32;6.57;;;2.07;;
11663;SDS011;72375;59.302;18.204;2023-10-31T02:36:18;6.40;;;2.10;;
11663;SDS011;72375;59.302;18.204;2023-10-31T02:39:05;7.27;;;2.60;;
11663;SDS011;72375;59.302;18.204;2023-10-31T02:41:51;6.77;;;2.00;;
11663;SDS011;72375;59.302;18.204;2023-10-31T02:44:37;6.83;;;2.10;;
11663;SDS011;72375;59.302;18.204;2023-10-31T02:47:22;6.43;;;2.47;;
11663;SDS011;72375;59.302;18.204;2023-10-31T02:50:08;7.80;;;2.10;;
11663;SDS011;72375;59.302;18.204;2023-10-31T02:52:54;5.90;;;1.80;;
11663;SDS011;72375;59.302;18.204;2023-10-31T02:55:41;8.30;;;2.20;;
11663;SDS011;72375;59.302;18.204;2023-10-31T02:58:27;8.73;;;2.10;;
11663;SDS011;72375;59.302;18.204;2023-10-31T03:01:12;6.37;;;2.27;;
11663;SDS011;72375;59.302;18.204;2023-10-31T03:03:58;4.03;;;2.00;;
11663;SDS011;72375;59.302;18.204;2023-10-31T03:06:44;6.17;;;2.10;;
11663;SDS011;72375;59.302;18.204;2023-10-31T03:09:30;11.47;;;2.30;;
11663;SDS011;72375;59.302;18.204;2023-10-31T03:12:16;9.17;;;2.50;;
11663;SDS011;72375;59.302;18.204;2023-10-31T03:15:02;9.13;;;2.43;;
11663;SDS011;72375;59.302;18.204;2023-10-31T03:17:48;7.03;;;2.37;;
11663;SDS011;72375;59.302;18.204;2023-10-31T03:20:34;7.90;;;3.17;;
11663;SDS011;72375;59.302;18.204;2023-10-31T03:23:20;8.70;;;2.53;;
11663;SDS011;72375;59.302;18.204;2023-10-31T03:26:06;10.03;;;2.33;;
11663;SDS011;72375;59.302;18.204;2023-10-31T03:28:53;9.17;;;2.90;;
11663;SDS011;72375;59.302;18.204;2023-10-31T03:31:40;10.70;;;2.70;;
11663;SDS011;72375;59.302;18.204;2023-10-31T03:34:26;7.53;;;2.40;;
11663;SDS011;72375;59.302;18.204;2023-10-31T03:37:12;6.60;;;2.50;;
11663;SDS011;72375;59.302;18.204;2023-10-31T03:39:58;4.97;;;2.60;;
11663;SDS011;72375;59.302;18.204;2023-10-31T03:42:43;9.73;;;2.83;;
11663;SDS011;72375;59.302;18.204;2023-10-31T03:45:30;5.97;;;2.40;;
11663;SDS011;72375;59.302;18.204;2023-10-31T03:48:16;6.93;;;2.10;;
11663;SDS011;72375;59.302;18.204;2023-10-31T03:51:02;5.90;;;2.77;;
11663;SDS011;72375;59.302;18.204;2023-10-31T03:53:48;9.43;;;2.30;;
11663;SDS011;72375;59.302;18.204;2023-10-31T03:56:38;8.47;;;2.60;;
11663;SDS011;72375;59.302;18.204;2023-10-31T03:59:24;9.17;;;2.50;;
11663;SDS011;72375;59.302;18.204;2023-10-31T04:02:11;9.23;;;2.30;;
11663;SDS011;72375;59.302;18.204;2023-10-31T04:04:57;9.63;;;2.33;;
11663;SDS011;72375;59.302;18.204;2023-10-31T04:07:42;10.43;;;3.00;;
11663;SDS011;72375;59.302;18.204;2023-10-31T04:10:28;7.03;;;2.43;;
11663;SDS011;72375;59.302;18.204;2023-10-31T04:13:14;9.00;;;2.50;;
11663;SDS011;72375;59.302;18.204;2023-10-31T04:15:59;6.80;;;2.83;;
11663;SDS011;72375;59.302;18.204;2023-10-31T04:18:46;9.27;;;2.53;;
11663;SDS011;72375;59.302;18.204;2023-10-31T04:21:31;9.37;;;2.57;;
11663;SDS011;72375;59.302;18.204;2023-10-31T04:24:17;7.60;;;2.33;;
11663;SDS011;72375;59.302;18.204;2023-10-31T04:27:03;7.83;;;2.33;;
11663;SDS011;72375;59.302;18.204;2023-10-31T04:29:49;6.17;;;2.30;;
11663;SDS011;72375;59.302;18.204;2023-10-31T04:32:35;8.07;;;2.70;;
11663;SDS011;72375;59.302;18.204;2023-10-31T04:35:22;6.43;;;2.50;;
11663;SDS011;72375;59.302;18.204;2023-10-31T04:38:08;7.30;;;2.43;;
11663;SDS011;72375;59.302;18.204;2023-10-31T04:40:53;7.40;;;2.40;;
11663;SDS011;72375;59.302;18.204;2023-10-31T04:43:39;6.37;;;2.57;;
11663;SDS011;72375;59.302;18.204;2023-10-31T04:46:25;7.40;;;2.30;;
11663;SDS011;72375;59.302;18.204;2023-10-31T04:49:11;6.03;;;2.17;;
11663;SDS011;72375;59.302;18.204;2023-10-31T04:51:58;6.83;;;2.53;;
11663;SDS011;72375;59.302;18.204;2023-10-31T04:54:44;5.63;;;2.40;;
11663;SDS011;72375;59.302;18.204;2023-10-31T04:57:29;6.00;;;2.37;;
11663;SDS011;72375;59.302;18.204;2023-10-31T05:00:15;7.17;;;2.67;;
11663;SDS011;72375;59.302;18.204;2023-10-31T05:03:01;8.77;;;2.20;;
11663;SDS011;72375;59.302;18.204;2023-10-31T05:05:47;6.50;;;2.40;;
11663;SDS011;72375;59.302;18.204;2023-10-31T05:08:35;5.20;;;2.60;;
11663;SDS011;72375;59.302;18.204;2023-10-31T05:11:20;7.87;;;3.00;;
11663;SDS011;72375;59.302;18.204;2023-10-31T05:14:07;7.33;;;2.23;;
11663;SDS011;72375;59.302;18.204;2023-10-31T05:16:54;4.63;;;1.90;;
11663;SDS011;72375;59.302;18.204;2023-10-31T05:19:39;7.20;;;2.83;;
11663;SDS011;72375;59.302;18.204;2023-10-31T05:22:25;5.33;;;2.60;;
11663;SDS011;72375;59.302;18.204;2023-10-31T05:25:12;7.40;;;2.57;;
11663;SDS011;72375;59.302;18.204;2023-10-31T05:27:58;7.33;;;2.23;;
11663;SDS011;72375;59.302;18.204;2023-10-31T05:30:43;8.60;;;3.40;;
11663;SDS011;72375;59.302;18.204;2023-10-31T05:33:29;5.00;;;2.10;;
11663;SDS011;72375;59.302;18.204;2023-10-31T05:36:18;6.77;;;2.40;;
11663;SDS011;72375;59.302;18.204;2023-10-31T05:39:04;7.17;;;2.47;;
11663;SDS011;72375;59.302;18.204;2023-10-31T05:41:51;5.70;;;2.40;;
11663;SDS011;72375;59.302;18.204;2023-10-31T05:44:37;8.33;;;3.23;;
11663;SDS011;72375;59.302;18.204;2023-10-31T05:47:23;6.43;;;2.63;;
11663;SDS011;72375;59.302;18.204;2023-10-31T05:50:09;7.83;;;2.57;;
11663;SDS011;72375;59.302;18.204;2023-10-31T05:52:55;6.30;;;2.33;;
11663;SDS011;72375;59.302;18.204;2023-10-31T05:55:40;7.70;;;2.67;;
11663;SDS011;72375;59.302;18.204;2023-10-31T05:58:27;7.63;;;2.30;;
11663;SDS011;72375;59.302;18.204;2023-10-31T06:01:13;7.20;;;2.27;;
11663;SDS011;72375;59.302;18.204;2023-10-31T06:03:58;8.00;;;2.50;;
11663;SDS011;72375;59.302;18.204;2023-10-31T06:06:44;8.93;;;2.30;;
11663;SDS011;72375;59.302;18.204;2023-10-31T06:09:30;10.60;;;2.40;;
11663;SDS011;72375;59.302;18.204;2023-10-31T06:12:16;9.60;;;2.37;;
11663;SDS011;72375;59.302;18.204;2023-10-31T06:15:04;6.47;;;2.40;;
11663;SDS011;72375;59.302;18.204;2023-10-31T06:17:51;7.93;;;2.63;;
11663;SDS011;72375;59.302;18.204;2023-10-31T06:20:37;5.53;;;2.20;;
11663;SDS011;72375;59.302;18.204;2023-10-31T06:23:23;7.10;;;2.13;;
11663;SDS011;72375;59.302;18.204;2023-10-31T06:26:09;8.67;;;2.87;;
11663;SDS011;72375;59.302;18.204;2023-10-31T06:28:55;6.40;;;2.37;;
11663;SDS011;72375;59.302;18.204;2023-10-31T06:31:42;8.37;;;2.50;;
11663;SDS011;72375;59.302;18.204;2023-10-31T06:34:27;6.17;;;2.47;;
11663;SDS011;72375;59.302;18.204;2023-10-31T06:37:13;6.27;;;2.63;;
11663;SDS011;72375;59.302;18.204;2023-10-31T06:39:58;9.57;;;2.70;;
11663;SDS011;72375;59.302;18.204;2023-10-31T06:42:44;8.90;;;3.00;;
11663;SDS011;72375;59.302;18.204;2023-10-31T06:45:29;7.13;;;2.53;;
11663;SDS011;72375;59.302;18.204;2023-10-31T06:48:17;7.90;;;2.43;;
11663;SDS011;72375;59.302;18.204;2023-10-31T06:51:02;10.07;;;3.40;;
11663;SDS011;72375;59.302;18.204;2023-10-31T06:53:49;9.93;;;2.73;;
11663;SDS011;72375;59.302;18.204;2023-10-31T06:56:35;6.97;;;2.33;;
11663;SDS011;72375;59.302;18.204;2023-10-31T06:59:21;13.27;;;2.93;;
11663;SDS011;72375;59.302;18.204;2023-10-31T07:02:06;8.43;;;3.53;;
11663;SDS011;72375;59.302;18.204;2023-10-31T07:04:54;9.13;;;2.93;;
11663;SDS011;72375;59.302;18.204;2023-10-31T07:07:39;9.23;;;3.10;;
11663;SDS011;72375;59.302;18.204;2023-10-31T07:10:25;5.10;;;2.50;;
11663;SDS011;72375;59.302;18.204;2023-10-31T07:13:11;9.00;;;2.40;;
11663;SDS011;72375;59.302;18.204;2023-10-31T07:15:57;7.67;;;2.40;;
11663;SDS011;72375;59.302;18.204;2023-10-31T07:18:43;7.23;;;2.47;;
11663;SDS011;72375;59.302;18.204;2023-10-31T07:21:30;10.80;;;3.23;;
11663;SDS011;72375;59.302;18.204;2023-10-31T07:24:15;7.37;;;2.10;;
11663;SDS011;72375;59.302;18.204;2023-10-31T07:27:01;10.70;;;3.43;;
11663;SDS011;72375;59.302;18.204;2023-10-31T07:29:47;9.13;;;3.10;;
11663;SDS011;72375;59.302;18.204;2023-10-31T07:32:33;8.53;;;2.80;;
11663;SDS011;72375;59.302;18.204;2023-10-31T07:35:19;8.17;;;2.50;;
11663;SDS011;72375;59.302;18.204;2023-10-31T07:38:06;10.67;;;2.77;;
11663;SDS011;72375;59.302;18.204;2023-10-31T07:40:52;8.90;;;2.33;;
11663;SDS011;72375;59.302;18.204;2023-10-31T07:43:38;6.60;;;2.50;;
11663;SDS011;72375;59.302;18.204;2023-10-31T07:46:24;7.53;;;2.73;;
11663;SDS011;72375;59.302;18.204;2023-10-31T07:49:10;6.50;;;2.50;;
11663;SDS011;72375;59.302;18.204;2023-10-31T07:51:55;9.17;;;2.40;;
11663;SDS011;72375;59.302;18.204;2023-10-31T07:54:42;9.33;;;2.70;;
11663;SDS011;72375;59.302;18.204;2023-10-31T07:57:28;11.10;;;2.80;;
11663;SDS011;72375;59.302;18.204;2023-10-31T08:00:14;8.37;;;3.20;;
11663;SDS011;72375;59.302;18.204;2023-10-31T08:02:59;16.33;;;3.57;;
11663;SDS011;72375;59.302;18.204;2023-10-31T08:05:45;9.13;;;3.60;;
11663;SDS011;72375;59.302;18.204;2023-10-31T08:08:31;7.33;;;2.73;;
11663;SDS011;72375;59.302;18.204;2023-10-31T08:11:18;4.87;;;2.40;;
11663;SDS011;72375;59.302;18.204;2023-10-31T08:14:03;6.63;;;2.43;;
11663;SDS011;72375;59.302;18.204;2023-10-31T08:16:49;8.73;;;2.80;;
11663;SDS011;72375;59.302;18.204;2023-10-31T08:19:35;8.20;;;2.63;;
11663;SDS011;72375;59.302;18.204;2023-10-31T08:22:22;6.07;;;2.53;;
11663;SDS011;72375;59.302;18.204;2023-10-31T08:25:08;5.43;;;2.60;;
11663;SDS011;72375;59.302;18.204;2023-10-31T08:27:55;9.23;;;2.97;;
11663;SDS011;72375;59.302;18.204;2023-10-31T08:30:40;5.97;;;2.30;;
11663;SDS011;72375;59.302;18.204;2023-10-31T08:33:26;11.90;;;2.77;;
11663;SDS011;72375;59.302;18.204;2023-10-31T08:36:12;11.60;;;3.00;;
11663;SDS011;72375;59.302;18.204;2023-10-31T08:38:58;5.90;;;2.60;;
11663;SDS011;72375;59.302;18.204;2023-10-31T08:41:50;7.23;;;2.10;;
11663;SDS011;72375;59.302;18.204;2023-10-31T08:44:37;7.77;;;2.83;;
11663;SDS011;72375;59.302;18.204;2023-10-31T08:47:25;11.07;;;2.63;;
11663;SDS011;72375;59.302;18.204;2023-10-31T08:50:11;8.03;;;2.47;;
11663;SDS011;72375;59.302;18.204;2023-10-31T08:52:57;10.30;;;2.77;;
11663;SDS011;72375;59.302;18.204;2023-10-31T08:55:43;7.17;;;2.20;;
11663;SDS011;72375;59.302;18.204;2023-10-31T08:58:29;5.93;;;2.60;;
11663;SDS011;72375;59.302;18.204;2023-10-31T09:01:16;8.13;;;2.37;;
11663;SDS011;72375;59.302;18.204;2023-10-31T09:04:02;6.03;;;2.70;;
11663;SDS011;72375;59.302;18.204;2023-10-31T09:06:48;7.40;;;2.33;;
11663;SDS011;72375;59.302;18.204;2023-10-31T09:09:33;7.97;;;2.57;;
11663;SDS011;72375;59.302;18.204;2023-10-31T09:12:19;7.97;;;2.50;;
11663;SDS011;72375;59.302;18.204;2023-10-31T09:15:05;5.47;;;2.43;;
11663;SDS011;72375;59.302;18.204;2023-10-31T09:17:54;4.33;;;2.13;;
11663;SDS011;72375;59.302;18.204;2023-10-31T09:20:40;5.63;;;2.87;;
11663;SDS011;72375;59.302;18.204;2023-10-31T09:23:25;3.97;;;2.30;;
11663;SDS011;72375;59.302;18.204;2023-10-31T09:26:11;6.13;;;2.50;;
11663;SDS011;72375;59.302;18.204;2023-10-31T09:28:57;7.00;;;2.93;;
11663;SDS011;72375;59.302;18.204;2023-10-31T09:31:42;5.30;;;2.53;;
11663;SDS011;72375;59.302;18.204;2023-10-31T09:34:29;6.60;;;3.07;;
11663;SDS011;72375;59.302;18.204;2023-10-31T09:37:15;9.57;;;3.23;;
11663;SDS011;72375;59.302;18.204;2023-10-31T09:40:01;10.97;;;4.23;;
11663;SDS011;72375;59.302;18.204;2023-10-31T09:42:47;9.03;;;3.17;;
11663;SDS011;72375;59.302;18.204;2023-10-31T09:45:33;6.67;;;2.90;;
11663;SDS011;72375;59.302;18.204;2023-10-31T09:48:18;6.53;;;3.77;;
11663;SDS011;72375;59.302;18.204;2023-10-31T09:51:06;5.90;;;2.70;;
11663;SDS011;72375;59.302;18.204;2023-10-31T09:53:53;7.63;;;3.33;;
11663;SDS011;72375;59.302;18.204;2023-10-31T09:56:39;7.27;;;3.60;;
11663;SDS011;72375;59.302;18.204;2023-10-31T09:59:25;7.00;;;3.30;;
11663;SDS011;72375;59.302;18.204;2023-10-31T10:02:11;6.00;;;3.30;;
11663;SDS011;72375;59.302;18.204;2023-10-31T10:04:56;7.33;;;3.20;;
11663;SDS011;72375;59.302;18.204;2023-10-31T10:07:44;9.90;;;3.80;;
11663;SDS011;72375;59.302;18.204;2023-10-31T10:10:30;8.20;;;4.07;;
11663;SDS011;72375;59.302;18.204;2023-10-31T10:13:16;6.57;;;3.70;;
11663;SDS011;72375;59.302;18.204;2023-10-31T10:16:03;6.87;;;3.20;;
11663;SDS011;72375;59.302;18.204;2023-10-31T10:18:49;5.60;;;3.30;;
11663;SDS011;72375;59.302;18.204;2023-10-31T10:21:41;5.80;;;3.10;;
11663;SDS011;72375;59.302;18.204;2023-10-31T10:24:33;4.83;;;3.40;;
11663;SDS011;72375;59.302;18.204;2023-10-31T10:27:19;6.23;;;3.40;;
11663;SDS011;72375;59.302;18.204;2023-10-31T10:30:05;4.47;;;3.10;;
11663;SDS011;72375;59.302;18.204;2023-10-31T10:32:52;5.57;;;3.07;;
11663;SDS011;72375;59.302;18.204;2023-10-31T10:35:38;5.07;;;2.97;;
11663;SDS011;72375;59.302;18.204;2023-10-31T10:38:24;7.57;;;3.40;;
11663;SDS011;72375;59.302;18.204;2023-10-31T10:41:11;6.57;;;2.87;;
11663;SDS011;72375;59.302;18.204;2023-10-31T10:44:03;6.70;;;3.00;;
11663;SDS011;72375;59.302;18.204;2023-10-31T10:46:50;5.33;;;2.97;;
11663;SDS011;72375;59.302;18.204;2023-10-31T10:49:41;6.03;;;2.97;;
11663;SDS011;72375;59.302;18.204;2023-10-31T10:52:29;4.90;;;3.03;;
11663;SDS011;72375;59.302;18.204;2023-10-31T10:55:20;2.90;;;2.50;;
11663;SDS011;72375;59.302;18.204;2023-10-31T10:58:13;4.23;;;2.30;;
11663;SDS011;72375;59.302;18.204;2023-10-31T11:01:05;4.00;;;2.73;;
11663;SDS011;72375;59.302;18.204;2023-10-31T11:03:52;5.27;;;2.43;;
11663;SDS011;72375;59.302;18.204;2023-10-31T11:06:40;5.53;;;2.53;;
11663;SDS011;72375;59.302;18.204;2023-10-31T11:09:26;3.80;;;2.33;;
11663;SDS011;72375;59.302;18.204;2023-10-31T11:12:13;2.97;;;2.40;;
11663;SDS011;72375;59.302;18.204;2023-10-31T11:15:01;5.67;;;2.47;;
11663;SDS011;72375;59.302;18.204;2023-10-31T11:17:49;2.43;;;1.83;;
11663;SDS011;72375;59.302;18.204;2023-10-31T11:20:37;4.37;;;2.67;;
11663;SDS011;72375;59.302;18.204;2023-10-31T11:23:23;4.67;;;2.13;;
11663;SDS011;72375;59.302;18.204;2023-10-31T11:26:09;4.80;;;2.50;;
11663;SDS011;72375;59.302;18.204;2023-10-31T11:29:02;3.63;;;2.20;;
11663;SDS011;72375;59.302;18.204;2023-10-31T11:31:50;3.00;;;2.33;;
11663;SDS011;72375;59.302;18.204;2023-10-31T11:34:36;3.00;;;2.37;;
11663;SDS011;72375;59.302;18.204;2023-10-31T11:37:24;3.93;;;2.40;;
11663;SDS011;72375;59.302;18.204;2023-10-31T11:40:15;4.97;;;2.40;;
11663;SDS011;72375;59.302;18.204;2023-10-31T11:43:05;4.33;;;2.57;;
11663;SDS011;72375;59.302;18.204;2023-10-31T11:45:52;4.50;;;2.80;;
11663;SDS011;72375;59.302;18.204;2023-10-31T11:48:46;4.20;;;2.03;;
11663;SDS011;72375;59.302;18.204;2023-10-31T11:51:34;4.80;;;2.20;;
11663;SDS011;72375;59.302;18.204;2023-10-31T11:54:19;2.90;;;2.30;;
11663;SDS011;72375;59.302;18.204;2023-10-31T11:57:05;3.50;;;2.40;;
11663;SDS011;72375;59.302;18.204;2023-10-31T11:59:51;4.33;;;2.10;;
11663;SDS011;72375;59.302;18.204;2023-10-31T12:02:36;3.30;;;1.70;;
11663;SDS011;72375;59.302;18.204;2023-10-31T12:05:24;4.73;;;2.33;;
11663;SDS011;72375;59.302;18.204;2023-10-31T12:08:09;5.07;;;2.43;;
11663;SDS011;72375;59.302;18.204;2023-10-31T12:11:08;5.17;;;2.13;;
11663;SDS011;72375;59.302;18.204;2023-10-31T12:13:55;2.57;;;1.87;;
11663;SDS011;72375;59.302;18.204;2023-10-31T12:16:44;4.33;;;2.20;;
11663;SDS011;72375;59.302;18.204;2023-10-31T12:19:30;2.50;;;1.83;;
11663;SDS011;72375;59.302;18.204;2023-10-31T12:22:17;3.87;;;1.70;;
11663;SDS011;72375;59.302;18.204;2023-10-31T12:25:05;2.17;;;1.70;;
11663;SDS011;72375;59.302;18.204;2023-10-31T12:27:52;3.13;;;1.87;;
11663;SDS011;72375;59.302;18.204;2023-10-31T12:30:43;5.83;;;1.90;;
11663;SDS011;72375;59.302;18.204;2023-10-31T12:33:30;3.43;;;1.67;;
11663;SDS011;72375;59.302;18.204;2023-10-31T12:36:16;3.73;;;1.77;;
11663;SDS011;72375;59.302;18.204;2023-10-31T12:39:03;3.30;;;1.77;;
11663;SDS011;72375;59.302;18.204;2023-10-31T12:41:52;2.70;;;1.43;;
11663;SDS011;72375;59.302;18.204;2023-10-31T12:44:38;3.27;;;1.63;;
11663;SDS011;72375;59.302;18.204;2023-10-31T12:47:24;2.33;;;1.20;;
11663;SDS011;72375;59.302;18.204;2023-10-31T12:50:11;1.97;;;1.10;;
11663;SDS011;72375;59.302;18.204;2023-10-31T12:52:58;2.10;;;1.13;;
11663;SDS011;72375;59.302;18.204;2023-10-31T12:55:45;1.23;;;1.10;;
11663;SDS011;72375;59.302;18.204;2023-10-31T12:58:31;1.57;;;1.00;;
11663;SDS011;72375;59.302;18.204;2023-10-31T13:01:18;2.67;;;1.20;;
11663;SDS011;72375;59.302;18.204;2023-10-31T13:04:04;1.77;;;0.83;;
11663;SDS011;72375;59.302;18.204;2023-10-31T13:06:54;1.10;;;0.90;;
11663;SDS011;72375;59.302;18.204;2023-10-31T13:09:41;1.23;;;0.90;;
11663;SDS011;72375;59.302;18.204;2023-10-31T13:12:29;2.30;;;0.93;;
11663;SDS011;72375;59.302;18.204;2023-10-31T13:15:15;1.53;;;0.73;;
11663;SDS011;72375;59.302;18.204;2023-10-31T13:18:02;1.73;;;0.80;;
11663;SDS011;72375;59.302;18.204;2023-10-31T13:20:48;1.93;;;1.27;;
11663;SDS011;72375;59.302;18.204;2023-10-31T13:23:33;1.50;;;0.93;;
11663;SDS011;72375;59.302;18.204;2023-10-31T13:26:21;1.47;;;0.73;;
11663;SDS011;72375;59.302;18.204;2023-10-31T13:29:08;0.93;;;0.70;;
11663;SDS011;72375;59.302;18.204;2023-10-31T13:31:54;1.23;;;0.67;;
11663;SDS011;72375;59.302;18.204;2023-10-31T13:34:40;2.87;;;0.80;;
11663;SDS011;72375;59.302;18.204;2023-10-31T13:37:25;1.37;;;0.97;;
11663;SDS011;72375;59.302;18.204;2023-10-31T13:40:11;2.47;;;0.77;;
11663;SDS011;72375;59.302;18.204;2023-10-31T13:42:57;0.63;;;0.63;;
11663;SDS011;72375;59.302;18.204;2023-10-31T13:45:44;0.70;;;0.60;;
11663;SDS011;72375;59.302;18.204;2023-10-31T13:48:30;0.93;;;0.60;;
11663;SDS011;72375;59.302;18.204;2023-10-31T13:51:15;0.90;;;0.47;;
11663;SDS011;72375;59.302;18.204;2023-10-31T13:54:03;0.53;;;0.43;;
11663;SDS011;72375;59.302;18.204;2023-10-31T13:56:49;0.60;;;0.40;;
11663;SDS011;72375;59.302;18.204;2023-10-31T13:59:35;1.37;;;0.40;;
11663;SDS011;72375;59.302;18.204;2023-10-31T14:02:22;0.90;;;0.60;;
11663;SDS011;72375;59.302;18.204;2023-10-31T14:05:07;0.50;;;0.40;;
11663;SDS011;72375;59.302;18.204;2023-10-31T14:07:53;1.37;;;0.47;;
11663;SDS011;72375;59.302;18.204;2023-10-31T14:10:39;2.40;;;0.60;;
11663;SDS011;72375;59.302;18.204;2023-10-31T14:13:29;0.53;;;0.40;;
11663;SDS011;72375;59.302;18.204;2023-10-31T14:16:14;1.07;;;0.63;;
11663;SDS011;72375;59.302;18.204;2023-10-31T14:19:02;1.33;;;0.60;;
11663;SDS011;72375;59.302;18.204;2023-10-31T14:21:47;0.70;;;0.50;;
11663;SDS011;72375;59.302;18.204;2023-10-31T14:24:33;0.70;;;0.40;;
11663;SDS011;72375;59.302;18.204;2023-10-31T14:27:19;0.70;;;0.50;;
11663;SDS011;72375;59.302;18.204;2023-10-31T14:30:05;0.77;;;0.37;;
11663;SDS011;72375;59.302;18.204;2023-10-31T14:32:51;0.57;;;0.57;;
11663;SDS011;72375;59.302;18.204;2023-10-31T14:35:38;0.40;;;0.40;;
11663;SDS011;72375;59.302;18.204;2023-10-31T14:38:24;0.50;;;0.50;;
11663;SDS011;72375;59.302;18.204;2023-10-31T14:41:09;0.50;;;0.40;;
11663;SDS011;72375;59.302;18.204;2023-10-31T14:43:55;0.40;;;0.23;;
11663;SDS011;72375;59.302;18.204;2023-10-31T14:46:41;0.87;;;0.40;;
11663;SDS011;72375;59.302;18.204;2023-10-31T14:49:27;0.63;;;0.40;;
11663;SDS011;72375;59.302;18.204;2023-10-31T14:52:14;0.20;;;0.20;;
11663;SDS011;72375;59.302;18.204;2023-10-31T14:55:00;0.57;;;0.33;;
11663;SDS011;72375;59.302;18.204;2023-10-31T14:57:47;0.40;;;0.40;;
11663;SDS011;72375;59.302;18.204;2023-10-31T15:00:32;0.77;;;0.40;;
11663;SDS011;72375;59.302;18.204;2023-10-31T15:03:18;0.90;;;0.40;;
11663;SDS011;72375;59.302;18.204;2023-10-31T15:06:04;0.50;;;0.30;;
11663;SDS011;72375;59.302;18.204;2023-10-31T15:08:52;0.33;;;0.33;;
11663;SDS011;72375;59.302;18.204;2023-10-31T15:11:38;0.40;;;0.20;;
11663;SDS011;72375;59.302;18.204;2023-10-31T15:14:24;0.40;;;0.30;;
11663;SDS011;72375;59.302;18.204;2023-10-31T15:17:09;0.60;;;0.37;;
11663;SDS011;72375;59.302;18.204;2023-10-31T15:19:55;0.17;;;0.17;;
11663;SDS011;72375;59.302;18.204;2023-10-31T15:22:41;0.73;;;0.30;;
11663;SDS011;72375;59.302;18.204;2023-10-31T15:25:28;0.30;;;0.30;;
11663;SDS011;72375;59.302;18.204;2023-10-31T15:28:14;0.20;;;0.20;;
11663;SDS011;72375;59.302;18.204;2023-10-31T15:31:00;1.80;;;0.10;;
11663;SDS011;72375;59.302;18.204;2023-10-31T15:33:45;0.20;;;0.20;;
11663;SDS011;72375;59.302;18.204;2023-10-31T15:36:31;0.23;;;0.20;;
11663;SDS011;72375;59.302;18.204;2023-10-31T15:39:17;0.53;;;0.40;;
11663;SDS011;72375;59.302;18.204;2023-10-31T15:42:04;1.37;;;0.30;;
11663;SDS011;72375;59.302;18.204;2023-10-31T15:44:50;0.40;;;0.30;;
11663;SDS011;72375;59.302;18.204;2023-10-31T15:47:38;0.30;;;0.30;;
11663;SDS011;72375;59.302;18.204;2023-10-31T15:50:24;0.30;;;0.30;;
11663;SDS011;72375;59.302;18.204;2023-10-31T15:53:10;0.37;;;0.30;;
11663;SDS011;72375;59.302;18.204;2023-10-31T15:55:55;0.27;;;0.20;;
11663;SDS011;72375;59.302;18.204;2023-10-31T15:58:43;0.20;;;0.20;;
11663;SDS011;72375;59.302;18.204;2023-10-31T16:01:28;0.30;;;0.30;;
11663;SDS011;72375;59.302;18.204;2023-10-31T16:04:14;0.10;;;0.10;;
11663;SDS011;72375;59.302;18.204;2023-10-31T16:07:00;1.53;;;0.40;;
11663;SDS011;72375;59.302;18.204;2023-10-31T16:09:45;1.37;;;0.20;;
11663;SDS011;72375;59.302;18.204;2023-10-31T16:12:31;0.23;;;0.23;;
11663;SDS011;72375;59.302;18.204;2023-10-31T16:15:18;0.63;;;0.20;;
11663;SDS011;72375;59.302;18.204;2023-10-31T16:18:04;0.33;;;0.30;;
11663;SDS011;72375;59.302;18.204;2023-10-31T16:20:51;0.47;;;0.30;;
11663;SDS011;72375;59.302;18.204;2023-10-31T16:23:36;0.20;;;0.20;;
11663;SDS011;72375;59.302;18.204;2023-10-31T16:26:22;0.30;;;0.20;;